Time;durP1;ratioP1;P1;durP2;ratioP2;P2;SDS_P1;SDS_P2;PMS_P1;PMS_P2;Temp;Humidity;BMP_temperature;BMP_pressure;BME280_temperature;BME280_humidity;BME280_pressure;Samples;Min_cycle;Max_cycle;Signal;HPM_P1;HPM_P2
2022/10/04 00:01:03;;;;;;;3.42;2.22;;;;;;;11.91;64.19;98588.00;5073623;28;20035;-53
2022/10/04 00:03:37;;;;;;;5.20;2.75;;;;;;;11.97;64.17;98592.75;5073715;28;20045;-50
2022/10/04 00:06:11;;;;;;;2.60;2.27;;;;;;;12.06;63.38;98601.69;5073773;28;20569;-51
2022/10/04 00:08:43;;;;;;;3.63;2.65;;;;;;;11.97;64.10;98600.78;5072395;28;20265;-52
2022/10/04 00:11:31;;;;;;;6.10;2.42;;;;;;;11.97;64.44;98581.16;5073500;28;20024;-49
2022/10/04 00:13:59;;;;;;;5.25;2.50;;;;;;;11.89;64.04;98615.00;5073284;28;20056;-52
2022/10/04 00:16:31;;;;;;;4.00;2.60;;;;;;;11.99;63.69;98608.66;5073408;28;20032;-55
2022/10/04 00:19:18;;;;;;;2.60;2.40;;;;;;;12.07;63.85;98608.72;5073022;28;20435;-52
2022/10/04 00:21:56;;;;;;;4.05;2.80;;;;;;;12.03;63.90;98635.03;5072962;28;20479;-55
2022/10/04 00:24:30;;;;;;;3.83;2.67;;;;;;;11.97;63.69;98629.44;5073196;28;20054;-56
2022/10/04 00:27:10;;;;;;;3.88;2.90;;;;;;;12.00;63.79;98629.13;5073297;28;20032;-53
2022/10/04 00:29:43;;;;;;;5.15;2.95;;;;;;;11.92;63.82;98617.38;5073041;28;20167;-54
2022/10/04 00:32:11;;;;;;;6.30;2.42;;;;;;;11.99;63.76;98612.19;5072790;28;20036;-54
2022/10/04 00:35:23;;;;;;;3.40;2.55;;;;;;;12.01;63.80;98615.59;5052777;28;20036;-54
2022/10/04 00:38:06;;;;;;;3.45;2.78;;;;;;;12.14;63.43;98611.56;5052713;28;20051;-54
2022/10/04 00:40:37;;;;;;;4.53;2.70;;;;;;;11.96;63.44;98633.97;5053075;28;20029;-53
2022/10/04 00:43:16;;;;;;;4.07;2.90;;;;;;;11.94;63.91;98637.81;5059950;28;20129;-55
2022/10/04 00:45:48;;;;;;;5.07;2.88;;;;;;;11.85;64.04;98623.53;5072924;28;20033;-51
2022/10/04 00:49:02;;;;;;;4.07;2.97;;;;;;;12.00;64.33;98624.59;5072167;28;20071;-51
2022/10/04 00:51:36;;;;;;;3.47;3.05;;;;;;;11.92;63.83;98628.09;5030804;28;20049;-54
2022/10/04 00:54:21;;;;;;;3.72;2.88;;;;;;;12.02;63.59;98624.44;5030980;28;20038;-54
2022/10/04 00:56:51;;;;;;;3.25;2.22;;;;;;;12.07;63.48;98635.56;5030600;28;20041;-54
2022/10/04 00:59:27;;;;;;;4.10;2.70;;;;;;;11.96;63.84;98636.66;5029989;28;20071;-55
2022/10/04 01:02:02;;;;;;;6.22;3.05;;;;;;;11.82;64.55;98637.25;5031241;28;20073;-54
2022/10/04 01:04:39;;;;;;;5.65;3.00;;;;;;;11.87;64.50;98641.16;5030589;28;20041;-55
2022/10/04 01:07:07;;;;;;;5.68;3.00;;;;;;;11.87;64.51;98634.94;5030710;28;20333;-55
2022/10/04 01:09:35;;;;;;;5.43;3.47;;;;;;;11.77;64.43;98630.56;5030501;28;20095;-54
2022/10/04 01:12:28;;;;;;;4.20;3.30;;;;;;;11.94;63.73;98632.44;5031022;28;20456;-53
2022/10/04 01:15:13;;;;;;;4.28;3.13;;;;;;;11.94;64.09;98627.09;5010959;28;20041;-55
2022/10/04 01:17:39;;;;;;;5.07;3.17;;;;;;;11.80;64.33;98632.06;5010948;28;20037;-51
2022/10/04 01:20:38;;;;;;;4.10;3.10;;;;;;;11.99;63.97;98644.38;5011118;28;20376;-53
2022/10/04 01:23:04;;;;;;;5.78;3.65;;;;;;;11.62;64.03;98582.06;5055916;28;20131;-55
2022/10/04 01:25:47;;;;;;;5.10;3.45;;;;;;;11.82;64.26;98645.31;5071977;28;20112;-53
2022/10/04 01:28:13;;;;;;;6.50;3.70;;;;;;;11.74;63.93;98636.25;5072451;28;20039;-54
2022/10/04 01:30:39;;;;;;;5.55;3.60;;;;;;;11.68;64.18;98639.53;5072157;28;20115;-54
2022/10/04 01:33:05;;;;;;;6.25;3.60;;;;;;;11.70;64.32;98620.63;5072308;28;20024;-56
2022/10/04 01:35:34;;;;;;;4.47;3.15;;;;;;;11.66;64.31;98643.41;5072174;28;20044;-54
2022/10/04 01:38:06;;;;;;;4.03;3.60;;;;;;;11.59;64.88;98640.50;5072151;28;20033;-53
2022/10/04 01:40:35;;;;;;;7.95;3.80;;;;;;;11.57;64.81;98683.56;5072313;28;20020;-54
2022/10/04 01:43:08;;;;;;;3.75;3.08;;;;;;;11.62;64.26;98649.09;5072039;28;20068;-59
2022/10/04 01:45:42;;;;;;;5.30;3.53;;;;;;;11.23;64.52;98603.97;5071938;28;20071;-58
2022/10/04 01:48:14;;;;;;;3.53;3.22;;;;;;;11.39;65.17;98664.84;5072240;28;20047;-58
2022/10/04 01:50:51;;;;;;;6.55;3.40;;;;;;;11.27;65.11;98624.09;5072118;28;20135;-60
2022/10/04 01:53:28;;;;;;;5.00;3.33;;;;;;;11.54;65.03;98654.38;5072163;28;20033;-59
2022/10/04 01:56:09;;;;;;;3.67;3.35;;;;;;;11.49;64.98;98643.31;5071652;28;20029;-60
2022/10/04 01:59:00;;;;;;;5.43;3.70;;;;;;;11.58;64.90;98658.44;5071686;28;20443;-59
2022/10/04 02:01:31;;;;;;;6.13;3.67;;;;;;;11.54;64.81;98651.69;5072802;28;20366;-56
2022/10/04 02:04:12;;;;;;;5.60;3.65;;;;;;;11.56;64.77;98652.38;5072024;28;20128;-57
2022/10/04 02:06:41;;;;;;;4.68;3.45;;;;;;;11.44;65.33;98672.44;5071990;28;20082;-57
2022/10/04 02:09:18;;;;;;;6.30;3.58;;;;;;;11.42;65.48;98661.84;5071959;28;20108;-57
2022/10/04 02:11:49;;;;;;;5.22;3.20;;;;;;;11.39;65.61;98680.09;5073647;28;20044;-56
2022/10/04 02:14:19;;;;;;;8.52;3.40;;;;;;;11.37;65.74;98668.72;5075711;28;20035;-59
2022/10/04 02:16:51;;;;;;;2.80;2.60;;;;;;;11.37;65.40;98653.44;5075842;28;20028;-60
2022/10/04 02:19:17;;;;;;;7.60;3.42;;;;;;;11.27;65.78;98664.28;5075171;28;20033;-57
2022/10/04 02:21:44;;;;;;;6.03;3.05;;;;;;;11.29;65.79;98686.38;5075670;28;20048;-57
2022/10/04 02:24:11;;;;;;;5.45;3.05;;;;;;;11.25;65.72;98685.03;5075349;28;20039;-58
2022/10/04 02:26:36;;;;;;;4.72;2.97;;;;;;;11.22;66.41;98653.19;5075606;28;20063;-60
2022/10/04 02:29:02;;;;;;;4.32;3.05;;;;;;;11.19;66.51;98662.38;5074259;28;20059;-58
2022/10/04 02:34:12;;;;;;;4.03;2.95;;;;;;;11.19;66.25;98680.31;5075626;28;20051;-56
2022/10/04 02:36:39;;;;;;;3.95;2.83;;;;;;;11.18;66.20;98692.84;5075447;28;20064;-58
2022/10/04 02:39:12;;;;;;;5.80;3.20;;;;;;;11.09;66.74;98658.09;5074822;28;20051;-56
2022/10/04 02:41:53;;;;;;;5.00;3.10;;;;;;;11.13;66.74;98671.03;5075279;28;20040;-57
2022/10/04 02:44:25;;;;;;;4.82;3.45;;;;;;;11.09;66.88;98679.53;5074868;28;20127;-55
2022/10/04 02:47:15;;;;;;;4.18;3.03;;;;;;;11.10;67.20;98674.03;5075089;28;20349;-58
2022/10/04 02:49:47;;;;;;;9.70;3.53;;;;;;;11.10;67.01;98670.53;5074812;28;20124;-57
2022/10/04 02:52:19;;;;;;;5.85;3.58;;;;;;;11.06;67.25;98670.81;5075283;28;20090;-59
2022/10/04 02:54:47;;;;;;;5.70;3.33;;;;;;;11.05;67.48;98682.53;5073997;28;20434;-60
2022/10/04 02:57:22;;;;;;;4.53;3.22;;;;;;;11.03;67.57;98684.53;5075350;28;20111;-59
2022/10/04 02:59:49;;;;;;;4.15;3.28;;;;;;;10.94;67.66;98677.44;5074760;28;20043;-72
2022/10/04 03:02:21;;;;;;;5.32;3.47;;;;;;;10.96;67.67;98687.97;5074842;28;20032;-57
2022/10/04 03:04:49;;;;;;;5.70;3.25;;;;;;;10.84;67.69;98676.66;5075125;28;20036;-60
2022/10/04 03:07:14;;;;;;;5.90;3.28;;;;;;;10.80;68.28;98702.91;5074566;28;20047;-55
2022/10/04 03:09:40;;;;;;;5.53;3.80;;;;;;;10.86;67.92;98688.09;5074427;28;20060;-57
2022/10/04 03:12:11;;;;;;;4.90;3.70;;;;;;;10.81;68.22;98720.66;5074753;28;20470;-59
2022/10/04 03:14:37;;;;;;;4.53;3.88;;;;;;;10.73;68.21;98693.78;5073817;28;20347;-55
2022/10/04 03:17:04;;;;;;;6.50;3.47;;;;;;;10.67;68.47;98694.41;5074982;28;20024;-63
2022/10/04 03:19:31;;;;;;;5.97;3.92;;;;;;;10.87;67.82;98684.41;5074362;28;20038;-58
2022/10/04 03:22:07;;;;;;;7.40;3.85;;;;;;;10.87;67.89;98681.72;5074270;28;20075;-57
2022/10/04 03:24:38;;;;;;;7.13;3.88;;;;;;;10.86;67.96;98688.91;5075228;28;20111;-53
2022/10/04 03:27:06;;;;;;;5.80;3.63;;;;;;;10.81;68.35;98685.84;5074889;28;20033;-61
2022/10/04 03:29:33;;;;;;;6.93;4.00;;;;;;;10.82;68.44;98697.41;5074238;28;20024;-56
2022/10/04 03:32:03;;;;;;;7.00;3.83;;;;;;;10.84;67.83;98690.03;5074107;28;20458;-57
2022/10/04 03:34:37;;;;;;;6.30;4.10;;;;;;;10.81;68.29;98690.34;5074314;28;20036;-56
2022/10/04 03:37:10;;;;;;;4.78;3.58;;;;;;;10.56;68.75;98666.03;5074928;28;20055;-57
2022/10/04 03:39:51;;;;;;;4.85;3.88;;;;;;;10.79;68.80;98706.59;5073816;28;20055;-55
2022/10/04 03:42:22;;;;;;;7.60;4.30;;;;;;;10.73;68.35;98702.69;5054145;28;20142;-54
2022/10/04 03:44:50;;;;;;;5.78;3.55;;;;;;;10.73;68.56;98691.97;5054423;28;20068;-57
2022/10/04 03:47:37;;;;;;;4.45;3.50;;;;;;;10.81;68.49;98712.63;5054191;28;20037;-56
2022/10/04 03:50:13;;;;;;;8.65;3.90;;;;;;;10.75;68.32;98727.47;5072928;28;20048;-57
2022/10/04 03:52:49;;;;;;;6.00;3.95;;;;;;;10.72;68.91;98710.84;5074040;28;20101;-58
2022/10/04 03:55:17;;;;;;;4.18;3.38;;;;;;;10.73;68.44;98729.44;5074079;28;20025;-59
2022/10/04 03:57:43;;;;;;;4.53;4.03;;;;;;;10.74;68.33;98696.34;5073851;28;20421;-55
2022/10/04 04:00:13;;;;;;;9.50;4.30;;;;;;;10.74;68.70;98712.41;5073096;28;20032;-58
2022/10/04 04:02:47;;;;;;;6.28;3.97;;;;;;;10.88;68.45;98704.84;5073628;28;20039;-55
2022/10/04 04:05:25;;;;;;;4.95;3.83;;;;;;;10.88;68.09;98711.00;5073898;28;20455;-60
2022/10/04 04:07:53;;;;;;;5.45;4.30;;;;;;;10.87;68.12;98708.50;5073009;28;20036;-59
2022/10/04 04:10:27;;;;;;;7.18;4.15;;;;;;;10.80;68.31;98702.91;5081456;28;20045;-58
2022/10/04 04:12:59;;;;;;;5.20;4.00;;;;;;;10.75;68.43;98691.84;5073598;28;20123;-58
2022/10/04 04:15:31;;;;;;;6.40;3.90;;;;;;;10.97;68.26;98719.97;5072533;28;20454;-57
2022/10/04 04:18:03;;;;;;;9.77;3.70;;;;;;;11.23;67.47;98754.00;5073166;28;20403;-60
2022/10/04 04:20:37;;;;;;;9.55;3.63;;;;;;;11.27;67.10;98747.34;5073279;28;20032;-59
2022/10/04 04:23:14;;;;;;;9.50;3.97;;;;;;;11.26;67.25;98718.03;5073559;28;20032;-59
2022/10/04 04:25:44;;;;;;;5.32;3.20;;;;;;;11.38;67.00;98743.56;5072099;28;20040;-58
2022/10/04 04:28:31;;;;;;;6.85;4.13;;;;;;;11.50;66.61;98733.44;5072979;28;20029;-59
2022/10/04 04:31:05;;;;;;;5.38;3.55;;;;;;;11.54;66.37;98716.03;5072229;28;20316;-58
2022/10/04 04:33:40;;;;;;;7.53;3.60;;;;;;;11.66;65.66;98718.47;5072559;28;20024;-56
2022/10/04 04:36:09;;;;;;;7.95;3.33;;;;;;;11.70;65.53;98727.88;5073066;28;20107;-58
2022/10/04 04:39:32;;;;;;;6.55;3.30;;;;;;;11.84;65.07;98729.13;5073150;28;20457;-57
2022/10/04 04:41:23;;;;;;;6.43;3.67;;;;;;;11.97;64.58;98737.59;5072571;28;20060;-57
2022/10/04 04:43:49;;;;;;;5.05;3.40;;;;;;;11.90;64.69;98747.25;5073146;28;20074;-59
2022/10/04 04:46:15;;;;;;;4.88;3.40;;;;;;;12.68;62.91;98728.47;5071901;28;20032;-62
2022/10/04 04:48:46;;;;;;;6.75;3.47;;;;;;;13.52;59.98;98733.75;5071973;28;20031;-56
2022/10/04 04:51:20;;;;;;;6.03;3.22;;;;;;;13.37;60.11;98746.16;5071962;28;20458;-54
2022/10/04 04:53:47;;;;;;;4.07;3.15;;;;;;;13.55;59.71;98729.88;5070067;28;20025;-59
2022/10/04 04:56:20;;;;;;;6.57;3.00;;;;;;;13.58;58.88;98754.59;5070904;28;20051;-56
2022/10/04 04:58:48;;;;;;;4.63;2.70;;;;;;;13.39;59.24;98760.28;5072622;28;20036;-56
2022/10/04 05:01:27;;;;;;;8.10;3.15;;;;;;;13.23;60.24;98764.63;5072717;28;20040;-57
2022/10/04 05:04:11;;;;;;;5.13;3.45;;;;;;;13.78;59.08;98751.53;5071869;28;20171;-56
2022/10/04 05:06:40;;;;;;;6.75;3.50;;;;;;;13.60;58.97;98763.31;5072394;28;20124;-55
2022/10/04 05:09:20;;;;;;;8.25;3.20;;;;;;;13.51;59.23;98758.97;5072772;28;20062;-55
2022/10/04 05:11:47;;;;;;;7.43;3.38;;;;;;;13.61;59.82;98765.00;5072788;28;20082;-58
2022/10/04 05:14:14;;;;;;;7.03;3.50;;;;;;;14.68;56.18;98743.28;5072328;28;20071;-55
2022/10/04 05:16:49;;;;;;;6.93;3.40;;;;;;;14.84;55.81;98755.84;5072395;28;20481;-58
2022/10/04 05:19:18;;;;;;;9.35;3.78;;;;;;;14.56;56.08;98745.53;5071698;28;20033;-52
2022/10/04 05:21:45;;;;;;;5.80;3.30;;;;;;;14.20;56.84;98766.53;5067727;28;20417;-55
2022/10/04 05:24:19;;;;;;;7.07;3.67;;;;;;;14.23;57.02;98772.59;5071854;28;20032;-55
2022/10/04 05:26:49;;;;;;;7.60;3.35;;;;;;;14.50;56.09;98766.78;5071972;28;20025;-54
2022/10/04 05:29:20;;;;;;;6.63;3.08;;;;;;;14.52;56.15;98758.50;5072421;28;20435;-55
2022/10/04 05:32:10;;;;;;;7.50;3.53;;;;;;;14.43;56.71;98759.56;5072163;28;20063;-54
2022/10/04 05:34:39;;;;;;;6.88;3.15;;;;;;;14.59;56.17;98777.50;5072092;28;20119;-59
2022/10/04 05:37:13;;;;;;;4.57;3.60;;;;;;;15.14;54.95;98777.53;5072105;28;20029;-52
2022/10/04 05:39:48;;;;;;;7.68;3.60;;;;;;;15.03;53.99;98755.38;5072596;28;20032;-50
2022/10/04 05:42:22;;;;;;;5.10;3.70;;;;;;;14.73;55.44;98762.47;5071931;28;20067;-50
2022/10/04 05:44:55;;;;;;;6.68;3.22;;;;;;;14.92;55.16;98766.56;5071874;28;20052;-55
2022/10/04 05:47:25;;;;;;;5.65;3.47;;;;;;;14.89;54.83;98788.47;5075039;28;20060;-54
2022/10/04 05:49:56;;;;;;;6.78;3.42;;;;;;;14.69;55.28;98761.94;5076146;28;20052;-54
2022/10/04 05:52:29;;;;;;;5.30;3.60;;;;;;;14.38;56.19;98778.13;5076170;28;20094;-54
2022/10/04 05:55:32;;;;;;;6.70;3.63;;;;;;;13.90;58.00;98782.44;5074869;28;20394;-54
2022/10/04 05:58:19;;;;;;;8.98;3.88;;;;;;;13.75;58.36;98789.53;5076165;28;20095;-50
2022/10/04 06:01:05;;;;;;;6.05;3.92;;;;;;;13.45;59.04;98795.44;5075915;28;20059;-53
2022/10/04 06:03:43;;;;;;;9.07;4.10;;;;;;;13.18;59.90;98801.94;5075814;28;20043;-55
2022/10/04 06:06:23;;;;;;;8.00;3.78;;;;;;;13.16;59.78;98798.56;5075903;28;20379;-51
2022/10/04 06:09:20;;;;;;;7.13;3.92;;;;;;;13.01;60.10;98785.78;5075510;28;20036;-56
2022/10/04 06:12:04;;;;;;;8.90;3.75;;;;;;;12.94;60.62;98808.94;5075393;28;20132;-55
2022/10/04 06:15:12;;;;;;;12.77;4.60;;;;;;;12.92;60.73;98793.00;5075925;28;20032;-57
2022/10/04 06:17:44;;;;;;;7.75;3.50;;;;;;;12.75;60.87;98780.53;5074905;28;20101;-56
2022/10/04 06:20:46;;;;;;;7.22;3.65;;;;;;;12.80;60.95;98790.78;5075564;28;20046;-55
2022/10/04 06:23:17;;;;;;;5.47;3.95;;;;;;;12.67;61.10;98781.34;5060392;28;20059;-54
2022/10/04 06:25:48;;;;;;;7.00;3.75;;;;;;;12.69;60.99;98808.88;5076130;28;20032;-55
2022/10/04 06:28:23;;;;;;;9.85;3.85;;;;;;;12.66;61.51;98802.97;5075237;28;20064;-60
2022/10/04 06:31:12;;;;;;;7.43;3.70;;;;;;;12.75;61.22;98800.16;5075267;28;20042;-56
2022/10/04 06:34:07;;;;;;;13.40;4.32;;;;;;;12.72;61.27;98800.47;5075412;28;20042;-56
2022/10/04 06:37:08;;;;;;;5.75;3.65;;;;;;;12.77;61.04;98806.19;5075235;28;20522;-53
2022/10/04 06:39:33;;;;;;;7.22;3.47;;;;;;;12.70;60.98;98807.88;5075205;28;20028;-50
2022/10/04 06:42:39;;;;;;;4.93;3.55;;;;;;;12.97;60.64;98810.47;5075028;28;20089;-54
2022/10/04 06:45:28;;;;;;;5.93;3.13;;;;;;;13.09;60.19;98800.25;5074191;28;20032;-54
2022/10/04 06:48:21;;;;;;;5.22;3.40;;;;;;;13.17;60.06;98811.00;5075079;28;20082;-52
2022/10/04 06:50:57;;;;;;;8.95;3.65;;;;;;;13.15;59.24;98810.31;5069416;28;20399;-54
2022/10/04 06:53:34;;;;;;;5.65;3.17;;;;;;;13.14;59.28;98824.78;5074333;28;20045;-53
2022/10/04 06:56:18;;;;;;;5.13;3.63;;;;;;;13.20;59.79;98808.84;5071662;28;20106;-56
2022/10/04 06:59:22;;;;;;;6.57;3.83;;;;;;;13.22;59.52;98822.09;5073745;28;20028;-54
2022/10/04 07:01:52;;;;;;;6.43;3.38;;;;;;;13.26;58.79;98815.41;5074761;28;20033;-55
2022/10/04 07:04:27;;;;;;;5.22;3.45;;;;;;;13.42;58.42;98828.00;5074115;28;20033;-56
2022/10/04 07:07:34;;;;;;;9.30;3.28;;;;;;;13.82;57.64;98822.81;5074510;28;20060;-55
2022/10/04 07:10:02;;;;;;;;;;;;;;;14.31;56.22;98837.19;5074237;28;20356;-54
2022/10/04 07:12:33;;;;;;;5.35;3.35;;;;;;;14.03;55.65;98792.66;5074373;28;20239;-54
2022/10/04 07:15:01;;;;;;;6.05;3.75;;;;;;;14.03;55.82;98813.38;5074177;28;20054;-55
2022/10/04 07:17:39;;;;;;;5.30;3.35;;;;;;;14.01;56.22;98807.31;5074682;28;20055;-52
2022/10/04 07:20:15;;;;;;;6.93;3.63;;;;;;;14.01;56.30;98821.59;5073508;28;21430;-50
2022/10/04 07:22:49;;;;;;;5.43;3.45;;;;;;;14.09;55.42;98823.44;5072692;28;20068;-56
2022/10/04 07:25:21;;;;;;;3.83;3.50;;;;;;;14.16;55.23;98829.81;5074419;28;20091;-54
2022/10/04 07:30:47;;;;;;;8.45;3.17;;;;;;;14.43;53.80;98833.09;5073031;28;20020;-51
2022/10/04 07:33:24;;;;;;;7.53;3.20;;;;;;;14.63;53.43;98835.41;5074444;28;20043;-56
2022/10/04 07:36:00;;;;;;;4.50;2.85;;;;;;;14.62;53.16;98817.56;5073397;28;20020;-52
2022/10/04 07:38:28;;;;;;;;;;;;;;;14.98;53.26;98837.78;5074697;28;20363;-54
2022/10/04 07:41:08;;;;;;;6.28;3.22;;;;;;;14.72;52.60;98817.38;5073694;28;20313;-55
2022/10/04 07:43:55;;;;;;;8.40;3.25;;;;;;;14.78;53.14;98820.22;5073552;28;20477;-55
2022/10/04 07:46:43;;;;;;;10.70;3.35;;;;;;;14.77;51.92;98832.00;5073610;28;20020;-60
2022/10/04 07:49:14;;;;;;;5.80;3.05;;;;;;;14.81;51.46;98807.41;5073424;28;20056;-54
2022/10/04 07:52:11;;;;;;;5.93;3.50;;;;;;;15.24;51.57;98805.13;5072901;28;20550;-53
2022/10/04 07:54:46;;;;;;;4.32;2.97;;;;;;;15.84;48.90;98801.78;5071655;28;20036;-53
2022/10/04 07:57:25;;;;;;;3.80;3.00;;;;;;;16.46;48.48;98795.22;5062688;28;20158;-60
2022/10/04 08:00:18;;;;;;;7.60;2.92;;;;;;;16.72;47.20;98807.38;5053619;28;20089;-56
2022/10/04 08:03:21;;;;;;;3.47;3.00;;;;;;;16.97;46.63;98804.34;5068299;28;20025;-58
2022/10/04 08:06:08;;;;;;;5.05;3.20;;;;;;;17.34;45.13;98799.75;5063543;28;20115;-57
2022/10/04 08:08:58;;;;;;;3.47;2.83;;;;;;;17.30;45.56;98803.88;5072093;28;20123;-57
2022/10/04 08:11:42;;;;;;;3.28;2.30;;;;;;;17.27;46.11;98815.09;5070877;28;20044;-59
2022/10/04 08:14:51;;;;;;;3.55;2.25;;;;;;;17.16;45.98;98807.50;5072447;28;20036;-60
2022/10/04 08:17:43;;;;;;;3.90;2.42;;;;;;;17.24;45.45;98820.03;5072553;28;21412;-53
2022/10/04 08:20:21;;;;;;;6.38;2.50;;;;;;;17.28;45.05;98808.66;5072527;28;20525;-57
2022/10/04 08:22:55;;;;;;;3.70;2.60;;;;;;;17.36;44.99;98795.03;5077129;28;20128;-57
2022/10/04 08:26:01;;;;;;;8.47;2.87;;;;;;;17.68;45.02;98804.66;5072581;28;20446;-54
2022/10/04 08:32:19;;;;;;;4.50;2.35;;;;;;;17.31;44.78;98842.63;5072117;28;20103;-57
2022/10/04 08:35:06;;;;;;;7.15;2.40;;;;;;;16.64;45.27;98816.44;5052905;28;20127;-55
2022/10/04 08:37:40;;;;;;;4.70;2.47;;;;;;;16.18;46.58;98820.19;5056382;28;20055;-59
2022/10/04 08:40:23;;;;;;;6.53;2.78;;;;;;;15.88;47.62;98825.53;5072324;28;20119;-59
2022/10/04 08:43:06;;;;;;;4.45;2.30;;;;;;;15.70;47.87;98836.63;5069180;28;20044;-58
2022/10/04 08:46:02;;;;;;;6.00;2.80;;;;;;;15.81;47.73;98826.44;5071191;28;20457;-60
2022/10/04 08:48:44;;;;;;;3.47;2.25;;;;;;;15.38;48.06;98803.50;5070840;28;20080;-57
2022/10/04 08:51:24;;;;;;;8.32;2.70;;;;;;;15.38;48.57;98819.69;5071783;28;20401;-61
2022/10/04 08:54:27;;;;;;;4.30;2.63;;;;;;;15.30;48.61;98803.53;5069946;28;20124;-55
2022/10/04 08:57:05;;;;;;;4.25;2.72;;;;;;;15.15;48.47;98817.81;5071277;28;20052;-58
2022/10/04 09:00:08;;;;;;;3.53;2.55;;;;;;;15.27;48.80;98807.47;5065733;28;20043;-55
2022/10/04 09:02:40;;;;;;;4.25;2.42;;;;;;;15.21;48.68;98805.47;5072244;28;20073;-64
2022/10/04 09:05:21;;;;;;;5.55;2.65;;;;;;;15.33;48.79;98803.22;5072032;28;20161;-57
2022/10/04 09:08:04;;;;;;;4.95;2.90;;;;;;;15.57;48.50;98829.13;5071196;28;20497;-55
2022/10/04 09:10:43;;;;;;;3.92;2.60;;;;;;;15.78;47.80;98806.03;5072209;28;20056;-58
2022/10/04 09:13:53;;;;;;;5.47;2.78;;;;;;;15.94;47.50;98821.25;5072467;28;20170;-57
2022/10/04 09:16:35;;;;;;;6.72;2.60;;;;;;;16.03;47.05;98806.66;5071726;28;20411;-58
2022/10/04 09:19:12;;;;;;;6.15;2.47;;;;;;;16.21;45.91;98805.47;5071296;28;20024;-56
2022/10/04 09:21:55;;;;;;;4.95;2.45;;;;;;;16.60;46.03;98785.41;5075676;28;20039;-54
2022/10/04 09:24:33;;;;;;;4.97;2.58;;;;;;;16.66;45.24;98794.66;5092250;28;20046;-57
2022/10/04 09:27:29;;;;;;;3.97;2.13;;;;;;;16.86;45.23;98796.72;5092144;28;20040;-55
2022/10/04 09:29:55;;;;;;;;;;;;;;;17.31;45.04;98786.63;5054830;28;20476;-59
2022/10/04 09:32:47;;;;;;;3.70;2.47;;;;;;;17.20;43.99;98779.03;5072196;28;19991;-59
2022/10/04 09:35:44;;;;;;;5.78;2.80;;;;;;;17.05;43.96;98789.91;5071838;28;20036;-52
2022/10/04 09:38:47;;;;;;;7.47;2.67;;;;;;;16.95;44.87;98792.91;5032146;28;20384;-55
2022/10/04 09:41:22;;;;;;;3.72;2.50;;;;;;;16.90;44.32;98768.31;5071523;28;20043;-57
2022/10/04 09:44:21;;;;;;;5.55;2.80;;;;;;;17.15;44.34;98776.09;5071962;28;20033;-59
2022/10/04 09:46:58;;;;;;;4.03;2.15;;;;;;;17.23;43.64;98778.66;5071590;28;20040;-62
2022/10/04 09:49:47;;;;;;;4.63;2.20;;;;;;;17.23;43.57;98781.34;5071061;28;20102;-62
2022/10/04 09:52:24;;;;;;;5.95;2.70;;;;;;;17.00;42.81;98787.78;5064350;28;20123;-60
2022/10/04 09:55:14;;;;;;;3.83;2.50;;;;;;;16.89;43.77;98790.97;5060416;28;20090;-60
2022/10/04 09:57:48;;;;;;;3.97;2.83;;;;;;;16.53;44.17;98786.34;5070595;28;20412;-59
2022/10/04 10:00:22;;;;;;;5.43;2.20;;;;;;;16.32;44.41;98815.81;5068539;28;20064;-58
2022/10/04 10:03:25;;;;;;;5.80;2.70;;;;;;;16.27;45.26;98782.28;5070670;28;20120;-58
2022/10/04 10:06:03;;;;;;;2.97;2.20;;;;;;;16.04;45.72;98783.19;5059062;28;20514;-57
2022/10/04 10:08:47;;;;;;;4.20;2.20;;;;;;;15.90;45.86;98788.38;5055341;28;20531;-54
2022/10/04 10:14:44;;;;;;;2.65;1.77;;;;;;;15.92;46.01;98820.59;5071520;28;20024;-54
2022/10/04 10:17:24;;;;;;;2.22;2.00;;;;;;;15.77;45.81;98767.41;5055226;28;20029;-57
2022/10/04 10:20:10;;;;;;;5.68;2.03;;;;;;;16.04;45.61;98807.50;5054795;28;20525;-57
2022/10/04 10:22:54;;;;;;;6.18;2.30;;;;;;;16.21;45.67;98795.50;5064964;28;20059;-60
2022/10/04 10:25:38;;;;;;;3.10;2.10;;;;;;;16.21;45.73;98806.31;5082199;28;20040;-60
2022/10/04 10:28:28;;;;;;;6.13;2.30;;;;;;;16.23;46.07;98808.81;5070448;28;20569;-61
2022/10/04 10:31:31;;;;;;;6.10;2.38;;;;;;;16.26;46.26;98811.13;5071850;28;20093;-57
2022/10/04 10:34:11;;;;;;;6.75;2.30;;;;;;;16.02;46.14;98817.66;5074674;28;20036;-54
2022/10/04 10:36:59;;;;;;;4.85;2.03;;;;;;;15.86;47.55;98800.53;5073994;28;20036;-56
2022/10/04 10:39:51;;;;;;;7.03;2.50;;;;;;;15.85;48.64;98836.66;5055752;28;20039;-52
2022/10/04 10:42:49;;;;;;;2.40;2.20;;;;;;;15.70;49.86;98825.00;5064528;28;20047;-56
2022/10/04 10:45:37;;;;;;;3.03;2.20;;;;;;;15.14;53.71;98877.28;5074978;28;20039;-56
2022/10/04 10:48:20;;;;;;;3.75;1.38;;;;;;;14.48;56.07;98908.84;5074755;28;20032;-57
2022/10/04 10:50:58;;;;;;;1.73;1.00;;;;;;;13.86;57.46;98912.09;5074700;28;20056;-53
2022/10/04 10:53:55;;;;;;;2.72;0.90;;;;;;;13.19;58.54;98906.59;5077450;28;20109;-57
2022/10/04 10:56:33;;;;;;;2.78;1.05;;;;;;;12.91;60.06;98943.59;5066021;28;20044;-58
2022/10/04 10:59:36;;;;;;;3.53;0.90;;;;;;;12.86;59.49;98954.00;5075007;28;20028;-58
2022/10/04 11:02:38;;;;;;;2.58;1.00;;;;;;;12.82;58.94;98966.06;5074492;28;20128;-57
2022/10/04 11:05:25;;;;;;;1.23;0.68;;;;;;;12.87;58.05;98961.03;5072666;28;20371;-59
2022/10/04 11:08:00;;;;;;;4.05;0.82;;;;;;;12.73;57.52;98976.72;5072795;28;20107;-58
2022/10/04 11:10:37;;;;;;;0.82;0.50;;;;;;;12.47;57.51;98977.59;5094948;28;20124;-59
2022/10/04 11:13:20;;;;;;;1.80;0.45;;;;;;;12.04;59.11;98964.00;5091475;28;20362;-53
2022/10/04 11:16:06;;;;;;;3.22;0.50;;;;;;;11.90;59.87;98967.19;5055696;28;20128;-58
2022/10/04 11:18:56;;;;;;;0.73;0.63;;;;;;;11.74;60.79;98967.88;5054457;28;20037;-58
2022/10/04 11:21:49;;;;;;;1.30;0.40;;;;;;;11.66;61.38;98955.25;5054535;28;20452;-58
2022/10/04 11:24:49;;;;;;;1.60;0.50;;;;;;;11.62;61.61;98970.81;5068813;28;20119;-57
2022/10/04 11:27:42;;;;;;;1.00;0.70;;;;;;;11.59;61.72;98968.44;5065222;28;20028;-57
2022/10/04 11:30:28;;;;;;;1.83;0.68;;;;;;;11.39;62.46;98982.94;5074195;28;20036;-59
2022/10/04 11:33:19;;;;;;;1.77;0.60;;;;;;;11.36;62.86;99004.69;5073992;28;20028;-59
2022/10/04 11:36:06;;;;;;;1.90;0.80;;;;;;;11.27;62.96;98985.81;5071674;28;20029;-59
2022/10/04 11:38:50;;;;;;;2.30;1.35;;;;;;;11.30;62.72;98988.19;5073162;28;20036;-56
2022/10/04 11:42:10;;;;;;;3.20;0.80;;;;;;;11.33;63.19;98989.75;5073737;28;20073;-59
2022/10/04 11:45:04;;;;;;;1.60;0.80;;;;;;;11.43;63.22;98992.38;5030113;28;20036;-52
2022/10/04 11:47:56;;;;;;;0.93;0.82;;;;;;;11.58;62.54;99001.59;5073440;28;20064;-53
2022/10/04 11:50:37;;;;;;;2.72;1.50;;;;;;;11.71;63.38;98990.50;5073527;28;20113;-54
2022/10/04 11:53:24;;;;;;;2.58;0.90;;;;;;;11.75;63.39;98991.88;5070126;28;20090;-53
2022/10/04 11:55:53;;;;;;;1.73;0.90;;;;;;;11.82;62.44;98992.13;5057335;28;20025;-56
2022/10/04 11:58:27;;;;;;;2.15;1.10;;;;;;;11.92;63.12;98992.88;5072546;28;20390;-57
2022/10/04 12:01:05;;;;;;;1.98;0.70;;;;;;;12.02;61.17;98991.97;5073624;28;20458;-58
2022/10/04 12:03:55;;;;;;;1.95;0.80;;;;;;;12.18;60.81;99002.88;5073512;28;20393;-53
2022/10/04 12:06:49;;;;;;;4.07;0.85;;;;;;;12.30;59.91;99008.00;5072747;28;20035;-59
2022/10/04 12:09:32;;;;;;;1.52;0.80;;;;;;;12.54;59.72;99006.47;5084837;28;20080;-58
2022/10/04 12:15:10;;;;;;;1.48;1.00;;;;;;;12.76;58.20;99005.97;5082834;28;20094;-62
2022/10/04 12:18:07;;;;;;;5.30;0.90;;;;;;;13.00;58.50;99011.66;5073179;28;20423;-59
2022/10/04 12:20:52;;;;;;;3.13;0.60;;;;;;;13.09;57.42;99015.22;5073106;28;20054;-59
2022/10/04 12:23:58;;;;;;;1.23;0.75;;;;;;;13.22;56.66;99007.53;5071621;28;20363;-58
2022/10/04 12:26:36;;;;;;;;;;;;;;;13.50;56.14;99012.72;5073594;28;20060;-63
2022/10/04 12:29:19;;;;;;;1.00;0.73;;;;;;;13.11;56.26;99015.91;5071800;28;19947;-60
2022/10/04 12:31:58;;;;;;;1.38;0.80;;;;;;;13.05;57.08;99020.94;5071979;28;20098;-59
2022/10/04 12:35:01;;;;;;;1.08;0.85;;;;;;;12.93;57.49;99006.06;5072356;28;20028;-58
2022/10/04 12:38:01;;;;;;;2.40;0.60;;;;;;;12.96;56.52;99015.66;5072612;28;20036;-59
2022/10/04 12:40:43;;;;;;;2.75;0.80;;;;;;;13.03;56.33;99033.69;5072507;28;20024;-61
2022/10/04 12:43:29;;;;;;;1.33;0.70;;;;;;;13.02;55.97;99026.63;5072746;28;20035;-60
2022/10/04 12:46:20;;;;;;;4.53;1.05;;;;;;;12.85;56.07;99008.72;5055529;28;20039;-60
2022/10/04 12:49:15;;;;;;;2.75;0.77;;;;;;;13.07;56.35;99036.88;5071668;28;20383;-59